createdAt,value
2017-05-18T00:00:44.019Z,0
2017-05-18T00:01:45.286Z,0
2017-05-18T00:02:46.601Z,0
2017-05-18T00:03:47.855Z,0
2017-05-18T00:04:49.183Z,0
2017-05-18T00:05:50.458Z,0
2017-05-18T00:06:51.759Z,0
2017-05-18T00:07:53.018Z,0
2017-05-18T00:08:54.543Z,0
2017-05-18T00:09:55.897Z,0
2017-05-18T00:10:57.157Z,0
2017-05-18T00:11:58.410Z,0
2017-05-18T00:12:59.681Z,0
2017-05-18T00:14:00.974Z,0
2017-05-18T00:15:02.243Z,0
2017-05-18T00:16:03.507Z,0
2017-05-18T00:17:04.763Z,0
2017-05-18T00:18:06.018Z,0
2017-05-18T00:19:07.323Z,0
2017-05-18T00:20:08.569Z,0
2017-05-18T00:21:09.855Z,0
2017-05-18T00:22:11.104Z,0
2017-05-18T00:23:12.360Z,0
2017-05-18T00:24:13.622Z,0
2017-05-18T00:25:14.883Z,0
2017-05-18T00:26:16.219Z,0
2017-05-18T00:27:17.453Z,0
2017-05-18T00:28:18.724Z,0
2017-05-18T00:29:20.007Z,0
2017-05-18T00:30:21.217Z,0
2017-05-18T00:31:22.553Z,0
2017-05-18T00:32:23.795Z,0
2017-05-18T00:33:25.058Z,0
2017-05-18T00:34:26.440Z,0
2017-05-18T00:35:27.681Z,0
2017-05-18T00:36:28.931Z,0
2017-05-18T00:37:30.222Z,0
2017-05-18T00:38:31.508Z,0
2017-05-18T00:39:32.904Z,0
2017-05-18T00:40:34.187Z,0
2017-05-18T00:41:35.430Z,0
2017-05-18T00:42:36.673Z,0
2017-05-18T00:43:37.947Z,0
2017-05-18T00:44:39.285Z,0
2017-05-18T00:45:40.634Z,0
2017-05-18T00:46:41.889Z,0
2017-05-18T00:47:43.136Z,0
2017-05-18T00:48:44.422Z,0
2017-05-18T00:49:45.736Z,0
2017-05-18T00:50:47.086Z,0
2017-05-18T00:51:48.484Z,0
2017-05-18T00:52:49.765Z,0
2017-05-18T00:53:51.027Z,0
2017-05-18T00:54:52.315Z,0
2017-05-18T00:55:53.695Z,0
2017-05-18T00:56:54.955Z,0
2017-05-18T00:57:56.228Z,0
2017-05-18T00:58:57.515Z,0
2017-05-18T00:59:58.792Z,0
2017-05-18T01:01:00.217Z,0
2017-05-18T01:02:01.455Z,0
2017-05-18T01:03:02.711Z,0
2017-05-18T01:04:03.940Z,0
2017-05-18T01:05:05.235Z,0
2017-05-18T01:06:06.537Z,0
2017-05-18T01:07:07.737Z,0
2017-05-18T01:08:09.082Z,0
2017-05-18T01:09:10.526Z,0
2017-05-18T01:10:11.755Z,0
2017-05-18T01:11:13.012Z,0
2017-05-18T01:12:14.273Z,0
2017-05-18T01:13:15.531Z,0
2017-05-18T01:14:16.816Z,0
2017-05-18T01:15:18.266Z,0
2017-05-18T01:16:19.522Z,0
2017-05-18T01:17:20.806Z,0
2017-05-18T01:18:22.073Z,0
2017-05-18T01:19:23.345Z,0
2017-05-18T01:20:24.717Z,0
2017-05-18T01:21:25.966Z,0
2017-05-18T01:22:27.252Z,0
2017-05-18T01:23:28.580Z,0
2017-05-18T01:24:29.889Z,0
2017-05-18T01:25:31.163Z,0
2017-05-18T01:26:32.498Z,0
2017-05-18T01:27:33.748Z,0
2017-05-18T01:28:35.027Z,0
2017-05-18T01:29:36.280Z,0
2017-05-18T01:30:37.543Z,0
2017-05-18T01:31:38.842Z,0
2017-05-18T01:32:40.133Z,0
2017-05-18T01:33:41.441Z,0
2017-05-18T01:34:42.689Z,0
2017-05-18T01:35:43.947Z,0
2017-05-18T01:36:45.237Z,0
2017-05-18T01:37:46.514Z,0
2017-05-18T01:38:47.759Z,0
2017-05-18T01:39:49.020Z,0
2017-05-18T01:40:50.276Z,0
2017-05-18T01:41:51.516Z,0
2017-05-18T01:42:52.882Z,0
2017-05-18T01:43:54.157Z,0
2017-05-18T01:44:55.446Z,0
2017-05-18T01:45:56.713Z,0
2017-05-18T01:46:57.987Z,0
2017-05-18T01:47:59.265Z,0
2017-05-18T01:49:00.573Z,0
2017-05-18T01:50:01.854Z,0
2017-05-18T01:51:03.114Z,0
2017-05-18T01:52:04.388Z,0
2017-05-18T01:53:05.640Z,0
2017-05-18T01:54:07.017Z,0
2017-05-18T01:55:08.296Z,0
2017-05-18T01:56:09.572Z,0
2017-05-18T01:57:10.818Z,0
2017-05-18T01:58:12.073Z,0
2017-05-18T01:59:13.323Z,0
2017-05-18T02:00:14.675Z,0
2017-05-18T02:01:15.982Z,0
2017-05-18T02:02:17.278Z,0
2017-05-18T02:03:18.550Z,0
2017-05-18T02:04:19.819Z,0
2017-05-18T02:05:21.175Z,0
2017-05-18T02:06:22.439Z,0
2017-05-18T02:07:23.748Z,0
2017-05-18T02:08:24.951Z,0
2017-05-18T02:09:26.253Z,0
2017-05-18T02:10:27.519Z,0
2017-05-18T02:11:28.910Z,0
2017-05-18T02:12:30.219Z,0
2017-05-18T02:13:31.479Z,0
2017-05-18T02:14:32.769Z,0
2017-05-18T02:15:34.023Z,0
2017-05-18T02:16:35.317Z,0
2017-05-18T02:17:36.602Z,0
2017-05-18T02:18:37.851Z,0
2017-05-18T02:19:39.130Z,0
2017-05-18T02:20:40.399Z,0
2017-05-18T02:21:41.667Z,0
2017-05-18T02:22:42.991Z,0
2017-05-18T02:23:44.240Z,0
2017-05-18T02:24:45.500Z,0
2017-05-18T02:25:46.783Z,0
2017-05-18T02:26:48.008Z,0
2017-05-18T02:27:49.262Z,0
2017-05-18T02:28:50.515Z,0
2017-05-18T02:29:51.781Z,0
2017-05-18T02:30:53.037Z,0
2017-05-18T02:31:54.453Z,0
2017-05-18T02:32:55.668Z,0
2017-05-18T02:33:56.923Z,0
2017-05-18T02:34:58.193Z,0
2017-05-18T02:35:59.468Z,0
2017-05-18T02:37:00.823Z,0
2017-05-18T02:38:02.085Z,0
2017-05-18T02:39:03.363Z,0
2017-05-18T02:40:04.714Z,0
2017-05-18T02:41:05.982Z,0
2017-05-18T02:42:07.310Z,0
2017-05-18T02:43:08.637Z,0
2017-05-18T02:44:09.869Z,0
2017-05-18T02:45:11.152Z,0
2017-05-18T02:46:12.424Z,0
2017-05-18T02:47:13.678Z,0
2017-05-18T02:48:14.924Z,0
2017-05-18T02:49:16.200Z,4
2017-05-18T02:50:17.473Z,4
2017-05-18T02:51:18.728Z,4
2017-05-18T02:52:20.017Z,0
2017-05-18T02:53:21.338Z,0
2017-05-18T02:54:22.653Z,4
2017-05-18T02:55:23.941Z,4
2017-05-18T02:56:25.214Z,4
2017-05-18T02:57:26.566Z,4
2017-05-18T02:58:27.723Z,4
2017-05-18T02:59:29.078Z,4
2017-05-18T03:00:30.431Z,8
2017-05-18T03:01:31.682Z,4
2017-05-18T03:02:32.989Z,8
2017-05-18T03:03:34.388Z,8
2017-05-18T03:04:35.528Z,12
2017-05-18T03:05:36.852Z,12
2017-05-18T03:06:38.103Z,12
2017-05-18T03:07:39.363Z,12
2017-05-18T03:08:40.622Z,20
2017-05-18T03:09:41.883Z,20
2017-05-18T03:10:43.229Z,24
2017-05-18T03:11:44.505Z,28
2017-05-18T03:12:45.806Z,36
2017-05-18T03:13:47.014Z,40
2017-05-18T03:14:48.296Z,44
2017-05-18T03:15:49.561Z,52
2017-05-18T03:16:50.806Z,60
2017-05-18T03:17:52.087Z,64
2017-05-18T03:18:53.371Z,72
2017-05-18T03:19:54.734Z,80
2017-05-18T03:20:55.985Z,88
2017-05-18T03:21:57.340Z,92
2017-05-18T03:22:58.619Z,96
2017-05-18T03:23:59.859Z,100
2017-05-18T03:25:01.199Z,108
2017-05-18T03:26:02.480Z,116
2017-05-18T03:27:03.734Z,128
2017-05-18T03:28:05.022Z,140
2017-05-18T03:29:06.378Z,148
2017-05-18T03:30:07.633Z,164
2017-05-18T03:31:08.880Z,172
2017-05-18T03:32:10.167Z,188
2017-05-18T03:33:11.440Z,200
2017-05-18T03:34:12.729Z,216
2017-05-18T03:35:14.010Z,232
2017-05-18T03:36:15.292Z,248
2017-05-18T03:37:16.644Z,268
2017-05-18T03:38:17.911Z,288
2017-05-18T03:39:19.244Z,312
2017-05-18T03:40:20.617Z,332
2017-05-18T03:41:21.882Z,356
2017-05-18T03:42:23.185Z,380
2017-05-18T03:43:24.454Z,420
2017-05-18T03:44:25.740Z,460
2017-05-18T03:45:27.122Z,496
2017-05-18T03:46:28.411Z,536
2017-05-18T03:47:29.703Z,580
2017-05-18T03:48:30.962Z,624
2017-05-18T03:49:32.212Z,672
2017-05-18T03:50:33.489Z,716
2017-05-18T03:51:34.789Z,764
2017-05-18T03:52:36.143Z,816
2017-05-18T03:53:37.431Z,872
2017-05-18T03:54:38.656Z,928
2017-05-18T03:55:39.918Z,984
2017-05-18T03:56:41.222Z,1048
2017-05-18T03:57:42.462Z,1124
2017-05-18T03:58:43.720Z,1208
2017-05-18T03:59:44.963Z,1292
2017-05-18T04:00:46.230Z,1388
2017-05-18T04:01:47.582Z,1472
2017-05-18T04:02:48.908Z,1560
2017-05-18T04:03:50.345Z,1644
2017-05-18T04:04:51.590Z,1728
2017-05-18T04:05:52.839Z,1804
2017-05-18T04:06:54.094Z,1884
2017-05-18T04:07:55.364Z,1964
2017-05-18T04:08:56.639Z,2048
2017-05-18T04:09:57.878Z,2132
2017-05-18T04:10:59.211Z,2216
2017-05-18T04:12:00.471Z,2308
2017-05-18T04:13:01.736Z,2424
2017-05-18T04:14:03.080Z,2548
2017-05-18T04:15:04.308Z,2684
2017-05-18T04:16:05.621Z,2816
2017-05-18T04:17:06.908Z,2936
2017-05-18T04:18:08.171Z,3008
2017-05-18T04:19:09.460Z,3052
2017-05-18T04:20:10.694Z,3112
2017-05-18T04:21:12.032Z,3196
2017-05-18T04:22:13.305Z,3252
2017-05-18T04:23:14.569Z,3500
2017-05-18T04:24:15.841Z,4028
2017-05-18T04:25:17.114Z,4024
2017-05-18T04:26:18.393Z,3688
2017-05-18T04:27:19.682Z,3708
2017-05-18T04:28:21.119Z,3680
2017-05-18T04:29:22.355Z,3828
2017-05-18T04:30:23.641Z,3888
2017-05-18T04:31:24.949Z,3940
2017-05-18T04:32:26.219Z,3964
2017-05-18T04:33:27.490Z,3952
2017-05-18T04:34:28.728Z,3984
2017-05-18T04:35:30.043Z,3996
2017-05-18T04:36:31.297Z,4044
2017-05-18T04:37:32.556Z,4060
2017-05-18T04:38:33.822Z,4044
2017-05-18T04:39:35.063Z,4064
2017-05-18T04:40:36.398Z,4088
2017-05-18T04:41:37.669Z,4108
2017-05-18T04:42:38.909Z,4132
2017-05-18T04:43:40.346Z,4144
2017-05-18T04:44:41.524Z,4172
2017-05-18T04:45:42.769Z,4276
2017-05-18T04:46:44.059Z,4360
2017-05-18T04:47:45.354Z,4460
2017-05-18T04:48:46.772Z,4572
2017-05-18T04:49:48.065Z,4808
2017-05-18T04:50:49.298Z,5016
2017-05-18T04:51:50.561Z,5276
2017-05-18T04:52:51.818Z,5664
2017-05-18T04:53:53.068Z,5692
2017-05-18T04:54:54.340Z,6016
2017-05-18T04:55:55.669Z,6172
2017-05-18T04:56:56.946Z,6324
2017-05-18T04:57:58.262Z,6664
2017-05-18T04:58:59.444Z,6620
2017-05-18T05:00:00.725Z,7156
2017-05-18T05:01:01.985Z,7524
2017-05-18T05:02:03.261Z,7304
2017-05-18T05:03:04.558Z,7560
2017-05-18T05:04:05.841Z,8308
2017-05-18T05:05:07.139Z,8716
2017-05-18T05:06:08.404Z,8444
2017-05-18T05:07:09.700Z,8452
2017-05-18T05:08:11.215Z,9044
2017-05-18T05:09:12.482Z,9192
2017-05-18T05:10:13.744Z,8680
2017-05-18T05:11:15.010Z,8620
2017-05-18T05:12:16.294Z,8608
2017-05-18T05:13:17.560Z,8444
2017-05-18T05:14:18.879Z,8648
2017-05-18T05:15:20.250Z,9092
2017-05-18T05:16:21.501Z,9676
2017-05-18T05:17:22.766Z,10188
2017-05-18T05:18:24.017Z,10892
2017-05-18T05:19:25.314Z,9864
2017-05-18T05:20:26.633Z,11120
2017-05-18T05:21:27.888Z,10640
2017-05-18T05:22:29.171Z,10628
2017-05-18T05:23:30.446Z,10368
2017-05-18T05:24:31.710Z,9716
2017-05-18T05:25:33.187Z,8968
2017-05-18T05:26:34.428Z,8564
2017-05-18T05:27:35.778Z,9288
2017-05-18T05:28:37.031Z,10128
2017-05-18T05:29:38.294Z,12336
2017-05-18T05:30:39.537Z,12960
2017-05-18T05:31:40.970Z,10952
2017-05-18T05:32:42.187Z,10140
2017-05-18T05:33:43.449Z,9484
2017-05-18T05:34:44.795Z,10172
2017-05-18T05:35:46.061Z,10092
2017-05-18T05:36:47.405Z,11612
2017-05-18T05:37:48.718Z,11744
2017-05-18T05:38:49.967Z,12196
2017-05-18T05:39:51.243Z,13376
2017-05-18T05:40:52.518Z,14764
2017-05-18T05:41:53.819Z,16192
2017-05-18T05:42:55.188Z,16384
2017-05-18T05:43:56.495Z,13756
2017-05-18T05:44:57.738Z,13360
2017-05-18T05:45:59.022Z,16064
2017-05-18T05:47:00.446Z,16896
2017-05-18T05:48:01.698Z,13544
2017-05-18T05:49:02.992Z,16672
2017-05-18T05:50:04.291Z,15648
2017-05-18T05:51:05.563Z,18784
2017-05-18T05:52:06.867Z,19552
2017-05-18T05:53:08.198Z,14356
2017-05-18T05:54:09.485Z,9200
2017-05-18T05:55:10.757Z,19712
2017-05-18T05:56:12.053Z,18016
2017-05-18T05:57:13.321Z,17088
2017-05-18T05:58:14.573Z,11712
2017-05-18T05:59:15.987Z,10200
2017-05-18T06:00:17.291Z,10668
2017-05-18T06:01:18.544Z,9784
2017-05-18T06:02:19.825Z,9584
2017-05-18T06:03:21.086Z,10768
2017-05-18T06:04:22.426Z,11160
2017-05-18T06:10:09.935Z,11300
2017-05-18T06:11:11.247Z,11400
2017-05-18T06:12:12.501Z,12256
2017-05-18T06:13:13.754Z,13376
2017-05-18T06:14:15.030Z,15632
2017-05-18T06:15:16.268Z,17376
2017-05-18T06:16:17.523Z,21216
2017-05-18T06:17:18.776Z,27072
2017-05-18T06:18:20.049Z,33536
2017-05-18T06:19:21.404Z,35328
2017-05-18T06:20:22.675Z,35136
2017-05-18T06:21:23.938Z,24448
2017-05-18T06:22:25.184Z,25440
2017-05-18T06:23:26.442Z,30144
2017-05-18T06:24:27.713Z,24000
2017-05-18T06:25:29.002Z,33664
2017-05-18T06:26:30.261Z,31616
2017-05-18T06:27:31.512Z,34720
2017-05-18T06:28:32.792Z,38592
2017-05-18T06:29:34.072Z,22208
2017-05-18T06:30:35.364Z,31424
2017-05-18T06:31:36.602Z,37440
2017-05-18T06:32:37.870Z,33792
2017-05-18T06:33:39.132Z,35584
2017-05-18T06:34:40.391Z,32864
2017-05-18T06:35:41.650Z,30688
2017-05-18T06:36:42.988Z,27072
2017-05-18T06:37:44.246Z,13784
2017-05-18T06:38:45.513Z,9772
2017-05-18T06:39:46.758Z,9700
2017-05-18T06:40:48.016Z,9924
2017-05-18T06:41:49.335Z,10108
2017-05-18T06:42:50.594Z,10460
2017-05-18T06:43:51.836Z,11608
2017-05-18T06:44:53.119Z,13128
2017-05-18T06:45:54.355Z,13864
2017-05-18T06:46:55.631Z,13924
2017-05-18T06:47:56.965Z,13212
2017-05-18T06:48:58.219Z,13164
2017-05-18T06:49:59.475Z,13480
2017-05-18T06:51:00.736Z,14448
2017-05-18T06:52:01.997Z,17056
2017-05-18T06:53:03.254Z,27616
2017-05-18T06:54:04.520Z,22304
2017-05-18T06:55:05.782Z,26592
2017-05-18T06:56:07.067Z,19776
2017-05-18T06:57:08.420Z,27296
2017-05-18T06:58:09.673Z,28480
2017-05-18T06:59:10.934Z,31040
2017-05-18T07:00:12.209Z,29344
2017-05-18T07:01:13.531Z,31264
2017-05-18T07:02:14.771Z,37664
2017-05-18T07:03:16.034Z,36448
2017-05-18T07:04:17.307Z,23104
2017-05-18T07:05:18.589Z,22144
2017-05-18T07:06:19.854Z,22048
2017-05-18T07:07:21.192Z,22112
2017-05-18T07:08:22.419Z,27552
2017-05-18T07:09:23.692Z,35872
2017-05-18T07:10:24.963Z,24064
2017-05-18T07:11:26.214Z,19456
2017-05-18T07:12:27.477Z,15260
2017-05-18T07:13:28.742Z,12976
2017-05-18T07:14:30.027Z,12688
2017-05-18T07:15:31.260Z,12720
2017-05-18T07:16:32.537Z,13352
2017-05-18T07:17:33.814Z,14284
2017-05-18T07:18:35.098Z,12884
2017-05-18T07:19:36.334Z,11844
2017-05-18T07:20:37.590Z,11768
2017-05-18T07:21:38.943Z,12656
2017-05-18T07:22:40.201Z,10408
2017-05-18T07:23:41.473Z,10080
2017-05-18T07:24:42.726Z,9684
2017-05-18T07:25:44.009Z,8756
2017-05-18T07:26:45.276Z,8260
2017-05-18T07:27:46.523Z,7944
2017-05-18T07:28:47.791Z,7388
2017-05-18T07:29:49.049Z,6324
2017-05-18T07:30:50.338Z,5436
2017-05-18T07:31:51.591Z,5192
2017-05-18T07:32:52.948Z,5288
2017-05-18T07:33:54.197Z,5276
2017-05-18T07:34:55.450Z,4780
2017-05-18T07:35:56.815Z,4316
2017-05-18T07:36:58.112Z,4080
2017-05-18T07:37:59.371Z,3624
2017-05-18T07:39:00.642Z,3436
2017-05-18T07:40:01.932Z,3348
2017-05-18T07:41:03.211Z,3348
2017-05-18T07:42:04.489Z,3236
2017-05-18T07:43:05.728Z,3204
2017-05-18T07:44:07.087Z,2840
2017-05-18T07:45:08.367Z,2816
2017-05-18T07:46:09.674Z,2552
2017-05-18T07:47:10.989Z,2332
2017-05-18T07:48:12.274Z,2616
2017-05-18T07:49:13.686Z,2932
2017-05-18T07:50:14.950Z,3048
2017-05-18T07:51:16.192Z,3268
2017-05-18T07:52:17.475Z,3484
2017-05-18T07:53:18.728Z,3940
2017-05-18T07:54:19.987Z,4828
2017-05-18T07:55:21.324Z,6180
2017-05-18T07:56:22.585Z,8028
2017-05-18T07:57:23.833Z,10904
2017-05-18T07:58:25.083Z,12136
2017-05-18T07:59:26.331Z,14556
2017-05-18T08:00:27.585Z,16588
2017-05-18T08:01:28.838Z,18240
2017-05-18T08:02:30.139Z,19616
2017-05-18T08:03:31.399Z,19456
2017-05-18T08:04:32.656Z,18880
2017-05-18T08:05:33.911Z,17984
2017-05-18T08:06:35.220Z,17536
2017-05-18T08:07:36.532Z,16204
2017-05-18T08:08:37.786Z,14400
2017-05-18T08:09:39.040Z,12416
2017-05-18T08:10:40.287Z,11628
2017-05-18T08:11:41.536Z,11528
2017-05-18T08:12:42.794Z,11588
2017-05-18T08:13:44.226Z,11768
2017-05-18T08:14:45.448Z,11232
2017-05-18T08:15:46.773Z,10404
2017-05-18T08:16:48.006Z,10432
2017-05-18T08:17:49.256Z,8272
2017-05-18T08:18:50.504Z,7260
2017-05-18T08:19:51.759Z,6612
2017-05-18T08:20:53.027Z,6252
2017-05-18T08:21:54.270Z,6188
2017-05-18T08:22:55.514Z,5924
2017-05-18T08:23:56.795Z,5872
2017-05-18T08:24:58.019Z,5956
2017-05-18T08:25:59.287Z,6764
2017-05-18T08:27:00.642Z,8172
2017-05-18T08:28:01.885Z,8092
2017-05-18T08:29:03.168Z,7064
2017-05-18T08:30:04.408Z,7128
2017-05-18T08:31:05.698Z,6376
2017-05-18T08:32:07.028Z,5800
2017-05-18T08:33:08.304Z,6100
2017-05-18T08:34:09.555Z,7652
2017-05-18T08:35:10.837Z,7708
2017-05-18T08:36:12.077Z,8340
2017-05-18T08:37:13.366Z,7620
2017-05-18T08:38:14.671Z,9604
2017-05-18T08:39:15.920Z,18528
2017-05-18T08:40:17.166Z,22272
2017-05-18T08:41:18.417Z,26848
2017-05-18T08:42:19.697Z,32480
2017-05-18T08:43:20.963Z,33248
2017-05-18T08:44:22.288Z,31200
2017-05-18T08:45:23.541Z,31648
2017-05-18T08:46:24.862Z,29024
2017-05-18T08:47:26.118Z,22912
2017-05-18T08:48:27.371Z,21280
2017-05-18T08:49:28.623Z,25056
2017-05-18T08:50:29.886Z,29344
2017-05-18T08:51:31.153Z,18080
2017-05-18T08:52:32.392Z,16296
2017-05-18T08:53:33.639Z,18560
2017-05-18T08:54:34.924Z,21504
2017-05-18T08:55:36.191Z,19936
2017-05-18T08:56:37.462Z,17504
2017-05-18T08:57:38.824Z,14692
2017-05-18T08:58:40.081Z,12692
2017-05-18T08:59:41.339Z,11540
2017-05-18T09:00:42.750Z,10772
2017-05-18T09:01:44.119Z,10932
2017-05-18T09:02:45.379Z,11992
2017-05-18T09:03:46.637Z,13168
2017-05-18T09:04:47.879Z,13268
2017-05-18T09:05:49.128Z,13952
2017-05-18T09:06:50.413Z,15956
2017-05-18T09:07:51.681Z,15056
2017-05-18T09:08:53.000Z,13916
2017-05-18T09:09:54.241Z,15448
2017-05-18T09:10:55.480Z,16800
2017-05-18T09:11:56.739Z,15108
2017-05-18T09:12:58.000Z,16608
2017-05-18T09:13:59.272Z,18528
2017-05-18T09:15:00.577Z,27648
2017-05-18T09:16:01.824Z,30336
2017-05-18T09:17:03.094Z,33408
2017-05-18T09:18:04.339Z,33024
2017-05-18T09:19:05.637Z,31808
2017-05-18T09:20:06.916Z,35584
2017-05-18T09:21:08.191Z,36704
2017-05-18T09:22:09.454Z,27072
2017-05-18T09:23:10.714Z,28224
2017-05-18T09:24:11.998Z,28000
2017-05-18T09:25:13.285Z,24800
2017-05-18T09:26:14.551Z,50240
2017-05-18T09:27:15.881Z,45760
2017-05-18T09:28:17.108Z,43744
2017-05-18T09:29:18.363Z,45152
2017-05-18T09:30:19.639Z,55104
2017-05-18T09:31:20.942Z,31072
2017-05-18T09:32:22.208Z,68896
2017-05-18T09:33:23.499Z,65120
2017-05-18T09:34:24.741Z,53056
2017-05-18T09:35:25.991Z,52192
2017-05-18T09:36:27.242Z,40288
2017-05-18T09:37:28.507Z,42304
2017-05-18T09:38:29.759Z,51136
2017-05-18T09:39:31.021Z,51808
2017-05-18T09:40:32.286Z,32992
2017-05-18T09:41:33.545Z,39392
2017-05-18T09:42:34.925Z,22208
2017-05-18T09:43:36.135Z,20032
2017-05-18T09:44:37.395Z,20576
2017-05-18T09:45:38.690Z,13804
2017-05-18T09:46:39.934Z,10628
2017-05-18T09:47:41.170Z,11460
2017-05-18T09:48:42.432Z,11944
2017-05-18T09:49:43.696Z,13340
2017-05-18T09:50:45.035Z,15672
2017-05-18T09:51:46.302Z,16112
2017-05-18T09:52:47.571Z,14436
2017-05-18T09:53:48.841Z,19072
2017-05-18T09:54:50.091Z,16024
2017-05-18T09:55:51.345Z,17600
2017-05-18T09:56:52.592Z,17568
2017-05-18T09:57:53.878Z,17280
2017-05-18T09:58:55.144Z,18816
2017-05-18T09:59:56.399Z,16312
2017-05-18T10:00:57.657Z,14040
2017-05-18T10:01:58.919Z,13032
2017-05-18T10:03:00.189Z,11748
2017-05-18T10:04:01.476Z,10728
2017-05-18T10:05:02.734Z,12332
2017-05-18T10:06:03.981Z,12884
2017-05-18T10:07:05.261Z,14688
2017-05-18T10:08:06.659Z,16212
2017-05-18T10:09:07.868Z,22912
2017-05-18T10:10:09.155Z,19200
2017-05-18T10:11:10.452Z,15364
2017-05-18T10:12:11.726Z,16140
2017-05-18T10:13:13.052Z,14200
2017-05-18T10:14:14.282Z,17792
2017-05-18T10:15:15.595Z,12480
2017-05-18T10:16:16.865Z,12404
2017-05-18T10:17:18.125Z,12212
2017-05-18T10:18:19.367Z,10832
2017-05-18T10:19:20.621Z,10344
2017-05-18T10:20:21.900Z,9720
2017-05-18T10:21:23.275Z,7764
2017-05-18T10:22:24.549Z,12704
2017-05-18T10:23:25.803Z,13132
2017-05-18T10:24:27.058Z,13432
2017-05-18T10:25:28.315Z,14920
2017-05-18T10:26:29.624Z,11040
2017-05-18T10:27:30.900Z,8888
2017-05-18T10:28:32.194Z,8752
2017-05-18T10:29:33.427Z,7924
2017-05-18T10:30:34.691Z,7224
2017-05-18T10:31:36.015Z,7060
2017-05-18T10:32:37.254Z,7560
2017-05-18T10:33:38.625Z,7424
2017-05-18T10:34:39.932Z,8700
2017-05-18T10:35:41.193Z,11480
2017-05-18T10:36:42.448Z,9688
2017-05-18T10:37:43.824Z,9112
2017-05-18T10:38:45.119Z,9144
2017-05-18T10:39:46.369Z,9136
2017-05-18T10:40:47.620Z,8988
2017-05-18T10:41:48.926Z,9212
2017-05-18T10:42:50.167Z,9616
2017-05-18T10:43:51.437Z,9976
2017-05-18T10:44:52.700Z,12016
2017-05-18T10:45:53.949Z,11548
2017-05-18T10:46:55.228Z,10524
2017-05-18T10:47:56.488Z,10788
2017-05-18T10:48:57.788Z,11936
2017-05-18T10:49:59.047Z,13288
2017-05-18T10:51:00.368Z,14024
2017-05-18T10:52:01.614Z,15076
2017-05-18T10:53:02.883Z,16524
2017-05-18T10:54:04.129Z,17664
2017-05-18T10:55:05.425Z,15556
2017-05-18T10:56:06.751Z,14016
2017-05-18T10:57:08.018Z,11444
2017-05-18T10:58:09.273Z,9896
2017-05-18T10:59:10.521Z,8912
2017-05-18T11:00:11.768Z,7696
2017-05-18T11:01:13.038Z,7260
2017-05-18T11:02:14.295Z,7848
2017-05-18T11:03:15.615Z,8728
2017-05-18T11:04:16.865Z,9768
2017-05-18T11:05:18.128Z,10048
2017-05-18T11:06:19.388Z,10056
2017-05-18T11:07:20.630Z,10520
2017-05-18T11:08:21.890Z,11248
2017-05-18T11:09:23.177Z,11644
2017-05-18T11:10:24.429Z,11628
2017-05-18T11:11:25.677Z,11940
2017-05-18T11:12:27.031Z,12852
2017-05-18T11:13:28.285Z,13588
2017-05-18T11:14:29.614Z,13636
2017-05-18T11:15:30.894Z,13348
2017-05-18T11:16:32.167Z,13056
2017-05-18T11:17:33.402Z,12856
2017-05-18T11:18:34.638Z,12620
2017-05-18T11:19:35.908Z,12268
2017-05-18T11:20:37.237Z,11932
2017-05-18T11:21:38.463Z,11492
2017-05-18T11:22:39.746Z,11156
2017-05-18T11:23:41.016Z,10988
2017-05-18T11:24:42.269Z,10820
2017-05-18T11:25:43.522Z,10840
2017-05-18T11:26:44.868Z,10112
2017-05-18T11:27:46.139Z,8992
2017-05-18T11:28:47.399Z,9132
2017-05-18T11:29:48.633Z,9408
2017-05-18T11:30:49.902Z,9340
2017-05-18T11:31:51.142Z,9308
2017-05-18T11:32:52.394Z,9340
2017-05-18T11:33:53.684Z,9552
2017-05-18T11:34:54.984Z,9636
2017-05-18T11:35:56.208Z,9120
2017-05-18T11:36:57.452Z,8272
2017-05-18T11:37:58.745Z,7588
2017-05-18T11:38:59.967Z,6648
2017-05-18T11:40:01.415Z,5872
2017-05-18T11:41:02.606Z,5180
2017-05-18T11:42:03.856Z,4740
2017-05-18T11:43:05.123Z,4956
2017-05-18T11:44:06.355Z,6016
2017-05-18T11:45:07.662Z,6724
2017-05-18T11:46:08.893Z,6400
2017-05-18T11:47:10.166Z,5704
2017-05-18T11:48:11.417Z,5204
2017-05-18T11:49:12.655Z,4976
2017-05-18T11:50:13.915Z,4600
2017-05-18T11:51:15.184Z,4388
2017-05-18T11:52:16.595Z,4656
2017-05-18T11:53:17.843Z,5136
2017-05-18T11:54:19.111Z,5816
2017-05-18T11:55:20.362Z,6396
2017-05-18T11:56:21.599Z,6612
2017-05-18T11:57:22.886Z,6940
2017-05-18T11:58:24.139Z,7300
2017-05-18T11:59:25.391Z,7232
2017-05-18T12:00:26.636Z,7480
2017-05-18T12:01:27.904Z,8120
2017-05-18T12:02:29.143Z,8744
2017-05-18T12:03:30.382Z,9168
2017-05-18T12:04:31.722Z,9180
2017-05-18T12:05:33.008Z,8852
2017-05-18T12:06:34.241Z,8848
2017-05-18T12:07:35.486Z,8984
2017-05-18T12:08:36.771Z,8904
2017-05-18T12:09:38.053Z,8776
2017-05-18T12:10:39.372Z,8632
2017-05-18T12:11:40.729Z,8680
2017-05-18T12:12:41.973Z,9036
2017-05-18T12:13:43.220Z,9300
2017-05-18T12:14:44.464Z,9616
2017-05-18T12:15:45.751Z,10220
2017-05-18T12:16:46.999Z,10448
2017-05-18T12:17:48.278Z,10020
2017-05-18T12:18:49.514Z,9076
2017-05-18T12:19:50.862Z,8268
2017-05-18T12:20:52.112Z,7880
2017-05-18T12:21:53.375Z,7804
2017-05-18T12:22:54.620Z,7576
2017-05-18T12:23:55.873Z,7492
2017-05-18T12:24:57.163Z,7216
2017-05-18T12:25:58.417Z,6788
2017-05-18T12:26:59.661Z,6424
2017-05-18T12:28:00.965Z,6080
2017-05-18T12:29:02.242Z,5928
2017-05-18T12:30:03.518Z,6012
2017-05-18T12:31:04.806Z,6156
2017-05-18T12:32:06.045Z,6244
2017-05-18T12:33:07.310Z,6056
2017-05-18T12:34:08.627Z,6112
2017-05-18T12:35:09.871Z,6144
2017-05-18T12:36:11.157Z,6040
2017-05-18T12:37:12.402Z,5772
2017-05-18T12:38:13.649Z,5612
2017-05-18T12:39:14.894Z,5412
2017-05-18T12:40:16.144Z,5280
2017-05-18T12:41:17.634Z,5248
2017-05-18T12:42:18.883Z,5316
2017-05-18T12:43:20.137Z,5464
2017-05-18T12:44:21.385Z,5576
2017-05-18T12:45:22.643Z,5628
2017-05-18T12:46:23.889Z,5620
2017-05-18T12:47:25.147Z,5616
2017-05-18T12:48:26.407Z,5580
2017-05-18T12:49:27.722Z,5548
2017-05-18T12:50:29.034Z,5568
2017-05-18T12:51:30.283Z,5660
2017-05-18T12:52:31.543Z,5780
2017-05-18T12:53:32.781Z,5896
2017-05-18T12:54:34.031Z,5952
2017-05-18T12:55:35.406Z,5920
2017-05-18T12:56:36.679Z,5796
2017-05-18T12:57:37.965Z,5644
2017-05-18T12:58:39.279Z,5508
2017-05-18T12:59:40.533Z,5460
2017-05-18T13:00:41.782Z,5532
2017-05-18T13:01:43.158Z,5732
2017-05-18T13:02:44.383Z,6144
2017-05-18T13:03:45.631Z,6744
2017-05-18T13:04:46.891Z,7472
2017-05-18T13:05:48.165Z,8264
2017-05-18T13:06:49.660Z,9048
2017-05-18T13:07:50.945Z,9748
2017-05-18T13:08:52.214Z,10408
2017-05-18T13:09:53.473Z,11036
2017-05-18T13:10:54.779Z,11628
2017-05-18T13:11:55.983Z,12156
2017-05-18T13:12:57.310Z,12544
2017-05-18T13:13:58.559Z,12804
2017-05-18T13:14:59.818Z,12928
2017-05-18T13:16:01.085Z,12868
2017-05-18T13:17:02.362Z,12748
2017-05-18T13:18:03.707Z,12520
2017-05-18T13:19:04.972Z,12260
2017-05-18T13:20:06.198Z,11936
2017-05-18T13:21:07.446Z,11652
2017-05-18T13:22:08.741Z,11300
2017-05-18T13:23:09.990Z,11028
2017-05-18T13:24:11.307Z,10996
2017-05-18T13:25:12.548Z,11148
2017-05-18T13:26:13.806Z,11248
2017-05-18T13:27:15.073Z,11228
2017-05-18T13:28:16.318Z,11248
2017-05-18T13:29:17.622Z,11208
2017-05-18T13:30:18.887Z,11012
2017-05-18T13:31:20.147Z,10772
2017-05-18T13:32:21.381Z,10556
2017-05-18T13:33:22.642Z,10352
2017-05-18T13:34:23.917Z,10220
2017-05-18T13:35:25.149Z,9984
2017-05-18T13:36:26.418Z,9764
2017-05-18T13:37:27.675Z,9988
2017-05-18T13:38:28.956Z,10216
2017-05-18T13:39:30.241Z,10692
2017-05-18T13:40:31.520Z,10108
2017-05-18T13:41:32.753Z,8964
2017-05-18T13:42:33.992Z,8384
2017-05-18T13:43:35.242Z,8504
2017-05-18T13:44:36.558Z,8188
2017-05-18T13:45:37.735Z,8896
2017-05-18T13:46:39.179Z,9196
2017-05-18T13:47:40.446Z,9308
2017-05-18T13:48:41.778Z,9068
2017-05-18T13:49:43.035Z,9664
2017-05-18T13:50:44.274Z,10432